Time;durP1;ratioP1;P1;durP2;ratioP2;P2;SDS_P1;SDS_P2;PMS_P1;PMS_P2;Temp;Humidity;BMP_temperature;BMP_pressure;BME280_temperature;BME280_humidity;BME280_pressure;Samples;Min_cycle;Max_cycle;Signal;HPM_P1;HPM_P2
2022/11/13 00:01:10;;;;;;;0.00;0.00;;;6.50;99.90;;;;;;5069603;28;20559;-86
2022/11/13 00:03:35;;;;;;;0.10;0.10;;;6.70;99.90;;;;;;5070756;28;20551;-85
2022/11/13 00:06:02;;;;;;;0.10;0.10;;;6.50;99.90;;;;;;5069194;28;20283;-86
2022/11/13 00:08:27;;;;;;;0.00;0.00;;;6.30;99.90;;;;;;5078329;28;20727;-85
2022/11/13 00:11:10;;;;;;;0.10;0.10;;;6.50;99.90;;;;;;5068592;28;20177;-85
2022/11/13 00:13:35;;;;;;;0.00;0.00;;;6.50;99.90;;;;;;5074611;28;20185;-85
2022/11/13 00:16:05;;;;;;;0.10;0.10;;;6.60;99.90;;;;;;5069196;28;20197;-86
2022/11/13 00:18:33;;;;;;;0.00;0.00;;;6.70;99.90;;;;;;5072087;28;20173;-85
2022/11/13 00:21:08;;;;;;;0.10;0.10;;;6.70;99.90;;;;;;5079062;28;20175;-85
2022/11/13 00:23:35;;;;;;;0.10;0.10;;;6.70;99.90;;;;;;5070726;28;20238;-86
2022/11/13 00:26:13;;;;;;;0.07;0.07;;;6.90;99.90;;;;;;5083943;28;20199;-86
2022/11/13 00:28:39;;;;;;;0.10;0.10;;;7.10;99.90;;;;;;5060745;28;20187;-85
2022/11/13 00:31:07;;;;;;;0.10;0.10;;;7.10;99.90;;;;;;5080943;28;20268;-86
2022/11/13 00:33:33;;;;;;;0.10;0.10;;;7.10;99.90;;;;;;5069941;28;20187;-85
2022/11/13 00:36:07;;;;;;;0.10;0.10;;;7.20;99.90;;;;;;5075245;28;20201;-86
2022/11/13 00:38:33;;;;;;;0.10;0.10;;;7.30;99.90;;;;;;5086427;28;20204;-86
2022/11/13 00:40:59;;;;;;;0.00;0.00;;;7.30;99.90;;;;;;5087356;28;20178;-86
2022/11/13 00:43:26;;;;;;;0.10;0.10;;;7.40;99.90;;;;;;5091675;28;20187;-85
2022/11/13 00:45:52;;;;;;;0.10;0.10;;;7.10;99.90;;;;;;5076524;28;20183;-84
2022/11/13 00:48:17;;;;;;;0.10;0.10;;;7.10;99.90;;;;;;5087555;28;20187;-85
2022/11/13 00:50:43;;;;;;;0.10;0.10;;;7.10;99.90;;;;;;5065093;28;20197;-86
2022/11/13 00:53:09;;;;;;;0.10;0.10;;;7.10;99.90;;;;;;5077205;28;20558;-85
2022/11/13 00:55:34;;;;;;;0.10;0.10;;;7.10;99.90;;;;;;5080053;28;20228;-86
2022/11/13 00:58:00;;;;;;;0.00;0.00;;;7.10;99.90;;;;;;5067851;28;20658;-86
2022/11/13 01:00:25;;;;;;;0.10;0.10;;;6.90;99.90;;;;;;5075845;28;20576;-85
2022/11/13 01:02:51;;;;;;;0.10;0.10;;;6.90;99.90;;;;;;5063159;28;20723;-85
2022/11/13 01:05:16;;;;;;;0.10;0.10;;;6.70;99.90;;;;;;5069862;28;20571;-85
2022/11/13 01:07:42;;;;;;;0.10;0.10;;;6.60;99.90;;;;;;5059768;28;20176;-85
2022/11/13 01:10:08;;;;;;;0.10;0.10;;;6.80;99.90;;;;;;5058082;28;20214;-85
2022/11/13 01:12:33;;;;;;;0.10;0.10;;;6.70;99.90;;;;;;5054340;28;20186;-85
2022/11/13 01:14:59;;;;;;;0.10;0.10;;;6.50;99.90;;;;;;5052772;28;20206;-85
2022/11/13 01:17:25;;;;;;;0.10;0.10;;;6.40;99.90;;;;;;5061324;28;20189;-85
2022/11/13 01:19:51;;;;;;;0.00;0.00;;;6.30;99.90;;;;;;5044662;28;20679;-86
2022/11/13 01:22:16;;;;;;;0.10;0.10;;;6.20;99.90;;;;;;5065727;28;20182;-85
2022/11/13 01:24:42;;;;;;;0.10;0.10;;;6.30;99.90;;;;;;5047462;28;20185;-86
2022/11/13 01:27:07;;;;;;;0.10;0.10;;;6.20;99.90;;;;;;5067115;28;20195;-86
2022/11/13 01:29:33;;;;;;;0.10;0.10;;;6.20;99.90;;;;;;5055653;28;20652;-85
2022/11/13 01:31:59;;;;;;;0.10;0.10;;;6.00;99.90;;;;;;5060630;28;20209;-85
2022/11/13 01:34:24;;;;;;;0.10;0.10;;;5.90;99.90;;;;;;5059949;28;20398;-85
2022/11/13 01:36:50;;;;;;;0.10;0.10;;;6.00;99.90;;;;;;5061658;28;20180;-85
2022/11/13 01:39:16;;;;;;;0.10;0.10;;;6.10;99.90;;;;;;5059970;28;20272;-86
2022/11/13 01:41:41;;;;;;;0.10;0.10;;;6.10;99.90;;;;;;5060409;28;20181;-85
2022/11/13 01:44:12;;;;;;;0.10;0.10;;;6.20;99.90;;;;;;5058298;28;20189;-85
2022/11/13 01:46:52;;;;;;;0.10;0.10;;;6.40;99.90;;;;;;5054865;28;20178;-85
2022/11/13 01:49:37;;;;;;;0.10;0.10;;;6.50;99.90;;;;;;5053730;28;20207;-85
2022/11/13 01:52:07;;;;;;;0.10;0.10;;;6.60;99.90;;;;;;5053344;28;20188;-85
2022/11/13 01:54:38;;;;;;;0.10;0.10;;;6.70;99.90;;;;;;5066234;28;20210;-85
2022/11/13 01:57:04;;;;;;;0.10;0.10;;;7.00;99.90;;;;;;5063154;28;20271;-85
2022/11/13 01:59:36;;;;;;;0.10;0.10;;;7.10;99.90;;;;;;5069689;28;20285;-85
2022/11/13 02:02:02;;;;;;;0.10;0.10;;;7.20;99.90;;;;;;5045085;28;20180;-84
2022/11/13 02:04:28;;;;;;;0.10;0.10;;;7.30;99.90;;;;;;5067940;28;20230;-85
2022/11/13 02:07:01;;;;;;;0.10;0.10;;;7.40;99.90;;;;;;5045134;28;20667;-85
2022/11/13 02:09:34;;;;;;;0.10;0.10;;;7.40;99.90;;;;;;5067382;28;20243;-85
2022/11/13 02:12:00;;;;;;;0.00;0.00;;;7.40;99.90;;;;;;5064070;28;20224;-85
2022/11/13 02:14:28;;;;;;;0.10;0.10;;;7.40;99.90;;;;;;5052855;28;20204;-85
2022/11/13 02:17:04;;;;;;;0.00;0.00;;;7.40;99.90;;;;;;5060402;28;20189;-85
2022/11/13 02:19:34;;;;;;;0.10;0.10;;;7.50;99.90;;;;;;5062312;28;20221;-86
2022/11/13 02:22:18;;;;;;;0.10;0.10;;;7.30;99.90;;;;;;5061951;28;20181;-85
2022/11/13 02:24:46;;;;;;;0.10;0.10;;;6.90;99.90;;;;;;5066575;28;20178;-86
2022/11/13 02:27:30;;;;;;;0.10;0.10;;;6.70;99.90;;;;;;5053284;28;20182;-85
2022/11/13 02:29:55;;;;;;;0.10;0.10;;;6.60;99.90;;;;;;5066755;28;20200;-85
2022/11/13 02:32:21;;;;;;;0.10;0.10;;;6.50;99.90;;;;;;5062744;28;20222;-85
2022/11/13 02:34:46;;;;;;;0.10;0.10;;;6.30;99.90;;;;;;5059078;28;20189;-86
2022/11/13 02:37:12;;;;;;;0.10;0.10;;;6.20;99.90;;;;;;5052503;28;20201;-85
2022/11/13 02:39:37;;;;;;;0.00;0.00;;;6.00;99.90;;;;;;5062849;28;20197;-85
2022/11/13 02:42:03;;;;;;;0.00;0.00;;;5.90;99.90;;;;;;5050111;28;20243;-85
2022/11/13 02:44:29;;;;;;;0.10;0.10;;;5.80;99.90;;;;;;5057071;28;20182;-85
2022/11/13 02:46:54;;;;;;;0.10;0.10;;;5.90;99.90;;;;;;5059007;28;20272;-85
2022/11/13 02:49:20;;;;;;;0.10;0.10;;;6.00;99.90;;;;;;5055323;28;20570;-85
2022/11/13 02:51:45;;;;;;;0.00;0.00;;;5.80;99.90;;;;;;5060998;28;20186;-86
2022/11/13 02:54:11;;;;;;;0.10;0.10;;;5.80;99.90;;;;;;5051585;28;20297;-85
2022/11/13 02:56:36;;;;;;;0.10;0.10;;;5.80;99.90;;;;;;5055652;28;20699;-84
2022/11/13 02:59:02;;;;;;;0.10;0.10;;;5.60;99.90;;;;;;5068958;28;20203;-85
2022/11/13 03:01:28;;;;;;;0.07;0.07;;;5.60;99.90;;;;;;5052887;28;20233;-85
2022/11/13 03:03:53;;;;;;;0.10;0.10;;;5.60;99.90;;;;;;5066849;28;20174;-85
2022/11/13 03:06:19;;;;;;;0.00;0.00;;;5.50;99.90;;;;;;5051622;28;20180;-86
2022/11/13 03:08:44;;;;;;;0.00;0.00;;;5.30;99.90;;;;;;5064183;28;20177;-85
2022/11/13 03:11:11;;;;;;;0.10;0.10;;;5.40;99.90;;;;;;5051859;28;20178;-85
2022/11/13 03:13:37;;;;;;;0.10;0.10;;;5.60;99.90;;;;;;5061795;28;20200;-85
2022/11/13 03:16:08;;;;;;;0.10;0.10;;;5.50;99.90;;;;;;5049273;28;20209;-85
2022/11/13 03:18:33;;;;;;;0.10;0.10;;;5.40;99.90;;;;;;5051453;28;20595;-85
2022/11/13 03:21:09;;;;;;;0.00;0.00;;;5.40;99.90;;;;;;5047356;28;20265;-86
2022/11/13 03:23:35;;;;;;;0.00;0.00;;;5.30;99.90;;;;;;5052005;28;20183;-85
2022/11/13 03:26:09;;;;;;;0.10;0.10;;;5.50;99.90;;;;;;5060946;28;20190;-85
2022/11/13 03:28:35;;;;;;;0.10;0.10;;;5.60;99.90;;;;;;5051480;28;20181;-85
2022/11/13 03:31:01;;;;;;;0.00;0.00;;;5.70;99.90;;;;;;5065927;28;20216;-85
2022/11/13 03:33:27;;;;;;;0.10;0.10;;;5.80;99.90;;;;;;5067763;28;20288;-86
2022/11/13 03:35:52;;;;;;;0.00;0.00;;;5.90;99.90;;;;;;5035973;28;20644;-86
2022/11/13 03:38:18;;;;;;;0.10;0.10;;;5.90;99.90;;;;;;5057967;28;20262;-85
2022/11/13 03:40:43;;;;;;;0.10;0.10;;;5.90;99.90;;;;;;5062878;28;20690;-85
2022/11/13 03:43:09;;;;;;;0.10;0.10;;;5.90;99.90;;;;;;5057119;28;20596;-85
2022/11/13 03:45:34;;;;;;;0.00;0.00;;;5.70;99.90;;;;;;5046401;28;20229;-85
2022/11/13 03:48:00;;;;;;;0.00;0.00;;;5.70;99.90;;;;;;5063435;28;20662;-86
2022/11/13 03:50:26;;;;;;;0.10;0.10;;;5.80;99.90;;;;;;5044231;28;20203;-85
2022/11/13 03:52:51;;;;;;;0.00;0.00;;;5.80;99.90;;;;;;5047363;28;20235;-85
2022/11/13 03:55:17;;;;;;;0.10;0.10;;;5.90;99.90;;;;;;5059860;28;20591;-86
2022/11/13 03:57:43;;;;;;;0.10;0.10;;;5.90;99.90;;;;;;5052982;28;20188;-86
2022/11/13 04:00:09;;;;;;;0.00;0.00;;;5.90;99.90;;;;;;5042805;28;20201;-86
2022/11/13 04:02:35;;;;;;;0.10;0.10;;;5.90;99.90;;;;;;5061153;28;20197;-86
2022/11/13 04:05:00;;;;;;;0.10;0.10;;;5.90;99.90;;;;;;5056153;28;20555;-85
2022/11/13 04:07:26;;;;;;;0.10;0.10;;;6.00;99.90;;;;;;5051338;28;20182;-85
2022/11/13 04:09:52;;;;;;;0.00;0.00;;;6.00;99.90;;;;;;5054179;28;20287;-85
2022/11/13 04:12:17;;;;;;;0.10;0.10;;;5.90;99.90;;;;;;5070016;28;20273;-85
2022/11/13 04:14:43;;;;;;;0.10;0.10;;;5.90;99.90;;;;;;5058982;28;20296;-86
2022/11/13 04:17:08;;;;;;;0.10;0.10;;;5.90;99.90;;;;;;5047241;28;20173;-85
2022/11/13 04:19:33;;;;;;;0.10;0.10;;;5.90;99.90;;;;;;5046978;28;20579;-85
2022/11/13 04:21:59;;;;;;;0.10;0.10;;;5.90;99.90;;;;;;5063447;28;20180;-85
2022/11/13 04:24:24;;;;;;;0.10;0.10;;;5.90;99.90;;;;;;5039875;28;20189;-86
2022/11/13 04:26:50;;;;;;;0.10;0.10;;;5.90;99.90;;;;;;5051656;28;20174;-85
2022/11/13 04:29:15;;;;;;;0.10;0.10;;;5.90;99.90;;;;;;5050955;28;20294;-86
2022/11/13 04:31:41;;;;;;;0.10;0.10;;;6.00;99.90;;;;;;5048150;28;20187;-85
2022/11/13 04:34:07;;;;;;;0.10;0.10;;;6.00;99.90;;;;;;5055278;28;20188;-85
2022/11/13 04:36:32;;;;;;;0.00;0.00;;;6.00;99.90;;;;;;5049066;28;20212;-85
2022/11/13 04:38:58;;;;;;;0.00;0.00;;;6.00;99.90;;;;;;5062498;28;20217;-86
2022/11/13 04:44:07;;;;;;;0.10;0.10;;;6.10;99.90;;;;;;5062235;28;20312;-86
2022/11/13 04:46:33;;;;;;;0.10;0.10;;;6.10;99.90;;;;;;5070152;28;20679;-86
2022/11/13 04:48:59;;;;;;;0.03;0.03;;;6.10;99.90;;;;;;5037438;28;20222;-85
2022/11/13 04:51:24;;;;;;;0.10;0.10;;;6.10;99.90;;;;;;5062366;28;20210;-86
2022/11/13 04:53:50;;;;;;;0.10;0.10;;;6.20;99.90;;;;;;5059837;28;20177;-86
2022/11/13 04:56:15;;;;;;;0.10;0.10;;;6.20;99.90;;;;;;5066006;28;20205;-86
2022/11/13 04:58:40;;;;;;;0.10;0.10;;;6.20;99.90;;;;;;5053391;28;20181;-86
2022/11/13 05:01:06;;;;;;;0.10;0.10;;;6.20;99.90;;;;;;5065245;28;20199;-85
2022/11/13 05:03:32;;;;;;;0.10;0.10;;;6.20;99.90;;;;;;5046868;28;20183;-86
2022/11/13 05:06:02;;;;;;;0.10;0.10;;;6.30;99.90;;;;;;5066386;28;20190;-84
2022/11/13 05:08:28;;;;;;;0.10;0.10;;;6.20;99.90;;;;;;5045456;28;20239;-85
2022/11/13 05:10:53;;;;;;;0.10;0.10;;;6.30;99.90;;;;;;5063646;28;20181;-85
2022/11/13 05:13:19;;;;;;;0.10;0.10;;;6.30;99.90;;;;;;5039145;28;20316;-85
2022/11/13 05:15:44;;;;;;;0.10;0.10;;;6.30;99.90;;;;;;5060677;28;20854;-85
2022/11/13 05:18:10;;;;;;;0.10;0.10;;;6.40;99.90;;;;;;5060128;28;20679;-86
2022/11/13 05:20:35;;;;;;;0.10;0.10;;;6.30;99.90;;;;;;5058969;28;20246;-85
2022/11/13 05:23:01;;;;;;;0.10;0.10;;;6.40;99.90;;;;;;5061097;28;20187;-86
2022/11/13 05:25:26;;;;;;;0.07;0.07;;;6.50;99.90;;;;;;5052793;28;20182;-85
2022/11/13 05:27:52;;;;;;;0.10;0.10;;;6.50;99.90;;;;;;5057658;28;20546;-85
2022/11/13 05:30:17;;;;;;;0.00;0.00;;;6.60;99.90;;;;;;5055636;28;20213;-86
2022/11/13 05:32:43;;;;;;;0.10;0.10;;;6.60;99.90;;;;;;5057673;28;20182;-85
2022/11/13 05:35:08;;;;;;;0.07;0.07;;;6.60;99.90;;;;;;5069281;28;20196;-86
2022/11/13 05:37:34;;;;;;;0.10;0.10;;;6.60;99.90;;;;;;5056528;28;20189;-86
2022/11/13 05:40:00;;;;;;;0.00;0.00;;;6.50;99.90;;;;;;5065739;28;20209;-86
2022/11/13 05:42:26;;;;;;;0.00;0.00;;;6.60;99.90;;;;;;5061972;28;20192;-85
2022/11/13 05:44:51;;;;;;;0.10;0.10;;;6.40;99.90;;;;;;5064263;28;20549;-86
2022/11/13 05:47:17;;;;;;;0.10;0.10;;;6.40;99.90;;;;;;5059981;28;20722;-86
2022/11/13 05:49:42;;;;;;;0.00;0.00;;;6.20;99.90;;;;;;5060964;28;20216;-86
2022/11/13 05:52:08;;;;;;;0.10;0.10;;;5.90;99.90;;;;;;5059009;28;20214;-86
2022/11/13 05:54:33;;;;;;;0.00;0.00;;;5.70;99.90;;;;;;5053203;28;20219;-86
2022/11/13 05:56:59;;;;;;;0.10;0.10;;;5.60;99.90;;;;;;5062480;28;20235;-86
2022/11/13 05:59:24;;;;;;;0.10;0.10;;;5.40;99.90;;;;;;5069409;28;20208;-86
2022/11/13 06:01:50;;;;;;;0.10;0.10;;;5.30;99.90;;;;;;5054926;28;20185;-86
2022/11/13 06:04:15;;;;;;;0.03;0.03;;;5.20;99.90;;;;;;5053287;28;20213;-86
2022/11/13 06:06:41;;;;;;;0.10;0.10;;;5.10;99.90;;;;;;5053718;28;20260;-86
2022/11/13 06:09:08;;;;;;;0.10;0.10;;;5.10;99.90;;;;;;5054870;28;20201;-86
2022/11/13 06:11:34;;;;;;;0.10;0.10;;;5.20;99.90;;;;;;5063162;28;20177;-86
2022/11/13 06:14:00;;;;;;;0.10;0.10;;;5.40;99.90;;;;;;5061882;28;20201;-85
2022/11/13 06:16:34;;;;;;;0.03;0.03;;;5.60;99.90;;;;;;5060987;28;20177;-86
2022/11/13 06:19:01;;;;;;;0.10;0.10;;;5.80;99.90;;;;;;5064445;28;20200;-86
2022/11/13 06:21:29;;;;;;;0.10;0.10;;;5.90;99.90;;;;;;5045438;28;20673;-86
2022/11/13 06:23:56;;;;;;;0.10;0.10;;;6.10;99.90;;;;;;5052141;28;20266;-86
2022/11/13 06:26:24;;;;;;;0.03;0.03;;;5.80;99.90;;;;;;5062833;28;20557;-86
2022/11/13 06:28:50;;;;;;;0.10;0.10;;;5.70;99.90;;;;;;5051391;28;20200;-86
2022/11/13 06:31:22;;;;;;;0.03;0.03;;;5.80;99.90;;;;;;5055441;28;20268;-86
2022/11/13 06:33:48;;;;;;;0.10;0.10;;;5.60;99.90;;;;;;5050643;28;20551;-86
2022/11/13 06:36:17;;;;;;;0.10;0.10;;;5.30;99.90;;;;;;5053068;28;20209;-86
2022/11/13 06:38:43;;;;;;;0.10;0.10;;;5.20;99.90;;;;;;5064056;28;20201;-86
2022/11/13 06:41:11;;;;;;;0.10;0.10;;;5.20;99.90;;;;;;5056861;28;20217;-86
2022/11/13 06:43:37;;;;;;;0.10;0.10;;;5.40;99.90;;;;;;5058606;28;20640;-86
2022/11/13 06:46:04;;;;;;;0.10;0.10;;;5.60;99.90;;;;;;5048291;28;20188;-85
2022/11/13 06:48:30;;;;;;;0.07;0.07;;;5.60;99.90;;;;;;5048248;28;20227;-86
2022/11/13 06:51:01;;;;;;;0.00;0.00;;;5.80;99.90;;;;;;5062794;28;20668;-85
2022/11/13 06:53:26;;;;;;;0.10;0.10;;;5.90;99.90;;;;;;5066789;28;20195;-86
2022/11/13 06:55:52;;;;;;;0.10;0.10;;;6.10;99.90;;;;;;5064709;28;20701;-86
2022/11/13 06:58:18;;;;;;;0.00;0.00;;;6.20;99.90;;;;;;5047975;28;20182;-86
2022/11/13 07:00:43;;;;;;;0.10;0.10;;;6.30;99.90;;;;;;5062048;28;20200;-86
2022/11/13 07:03:17;;;;;;;0.10;0.10;;;6.40;99.90;;;;;;5048701;28;20184;-86
2022/11/13 07:05:42;;;;;;;0.10;0.10;;;6.40;99.90;;;;;;5060519;28;20182;-85
2022/11/13 07:08:08;;;;;;;0.10;0.10;;;6.50;99.90;;;;;;5046194;28;20193;-86
2022/11/13 07:10:34;;;;;;;0.10;0.10;;;6.50;99.90;;;;;;5047284;28;20204;-86
2022/11/13 07:12:59;;;;;;;0.07;0.07;;;6.60;99.90;;;;;;5060123;28;20187;-86
2022/11/13 07:15:26;;;;;;;0.10;0.10;;;6.60;99.90;;;;;;5053027;28;20217;-85
2022/11/13 07:17:51;;;;;;;0.10;0.10;;;6.50;99.90;;;;;;5052678;28;20192;-86
2022/11/13 07:20:17;;;;;;;0.03;0.03;;;6.30;99.90;;;;;;5054812;28;20703;-86
2022/11/13 07:22:42;;;;;;;0.10;0.10;;;6.10;99.90;;;;;;5063322;28;20228;-86
2022/11/13 07:25:08;;;;;;;0.10;0.10;;;5.90;99.90;;;;;;5031924;28;20198;-86
2022/11/13 07:27:34;;;;;;;0.10;0.10;;;6.00;99.90;;;;;;5063596;28;20174;-86
2022/11/13 07:29:59;;;;;;;0.10;0.10;;;6.20;99.90;;;;;;5061974;28;20212;-86
2022/11/13 07:32:25;;;;;;;0.00;0.00;;;6.30;99.90;;;;;;5050175;28;20181;-86
2022/11/13 07:34:50;;;;;;;0.10;0.10;;;6.40;99.90;;;;;;5054690;28;20205;-86
2022/11/13 07:37:16;;;;;;;0.10;0.10;;;6.50;99.90;;;;;;5061758;28;20235;-86
2022/11/13 07:39:42;;;;;;;0.10;0.10;;;6.60;99.90;;;;;;5057061;28;20604;-86
2022/11/13 07:42:07;;;;;;;0.10;0.10;;;6.60;99.90;;;;;;5066617;28;20227;-86
2022/11/13 07:44:33;;;;;;;0.10;0.10;;;6.50;99.90;;;;;;5042688;28;20184;-86
2022/11/13 07:46:59;;;;;;;0.10;0.10;;;6.30;99.90;;;;;;5060783;28;20181;-86
2022/11/13 07:49:25;;;;;;;0.10;0.10;;;6.20;99.90;;;;;;5053878;28;20204;-86
2022/11/13 07:51:50;;;;;;;0.10;0.10;;;6.40;99.90;;;;;;5047971;28;20193;-86
2022/11/13 07:54:17;;;;;;;0.10;0.10;;;6.60;99.90;;;;;;5049071;28;20198;-86
2022/11/13 07:56:43;;;;;;;0.10;0.10;;;6.60;99.90;;;;;;5052802;28;20530;-86
2022/11/13 07:59:08;;;;;;;0.10;0.10;;;6.70;99.90;;;;;;5053258;28;20252;-86
2022/11/13 08:01:34;;;;;;;0.10;0.10;;;6.50;99.90;;;;;;5037078;28;20554;-86
2022/11/13 08:04:00;;;;;;;0.10;0.10;;;5.90;99.90;;;;;;5061825;28;20194;-86
2022/11/13 08:06:26;;;;;;;0.10;0.10;;;5.90;99.90;;;;;;5058110;28;20661;-86
2022/11/13 08:08:52;;;;;;;0.10;0.10;;;6.00;99.90;;;;;;5056252;28;20273;-86
2022/11/13 08:11:18;;;;;;;0.10;0.10;;;6.20;99.90;;;;;;5060020;28;20655;-85
2022/11/13 08:13:43;;;;;;;0.10;0.10;;;6.40;99.90;;;;;;5061527;28;20188;-86
2022/11/13 08:16:09;;;;;;;0.10;0.10;;;6.40;99.90;;;;;;5039907;28;20212;-86
2022/11/13 08:18:35;;;;;;;0.00;0.00;;;6.60;99.90;;;;;;5050303;28;20205;-86
2022/11/13 08:21:02;;;;;;;0.10;0.10;;;6.90;99.90;;;;;;5061830;28;20190;-86
2022/11/13 08:23:28;;;;;;;0.10;0.10;;;7.10;99.90;;;;;;5057034;28;20185;-86
2022/11/13 08:25:54;;;;;;;0.10;0.10;;;7.10;99.90;;;;;;5058275;28;20526;-86
2022/11/13 08:28:19;;;;;;;0.10;0.10;;;7.30;99.90;;;;;;5066238;28;20178;-86
2022/11/13 08:30:45;;;;;;;0.10;0.10;;;7.40;99.90;;;;;;5067591;28;20212;-86
2022/11/13 08:33:11;;;;;;;0.10;0.10;;;7.50;99.90;;;;;;5074623;28;20192;-87
2022/11/13 08:35:37;;;;;;;0.10;0.10;;;7.40;99.90;;;;;;5054186;28;20194;-85
2022/11/13 08:38:07;;;;;;;0.10;0.10;;;7.40;99.90;;;;;;5070373;28;20174;-86
2022/11/13 08:40:34;;;;;;;0.10;0.10;;;7.20;99.90;;;;;;5037675;28;20234;-86
2022/11/13 08:43:00;;;;;;;0.10;0.10;;;7.10;99.90;;;;;;5058970;28;20748;-86
2022/11/13 08:45:27;;;;;;;0.07;0.07;;;7.20;99.90;;;;;;5051599;28;20189;-86
2022/11/13 08:47:53;;;;;;;0.10;0.10;;;7.00;99.90;;;;;;5067263;28;20170;-85
2022/11/13 08:50:19;;;;;;;0.10;0.10;;;7.00;99.90;;;;;;5043177;28;20209;-86
2022/11/13 08:52:45;;;;;;;0.10;0.10;;;7.10;99.90;;;;;;5060614;28;20228;-86
2022/11/13 08:55:11;;;;;;;0.10;0.10;;;7.30;99.90;;;;;;5060566;28;20218;-86
2022/11/13 08:57:36;;;;;;;0.10;0.10;;;7.50;99.90;;;;;;5056372;28;20543;-86
2022/11/13 09:00:03;;;;;;;0.10;0.10;;;7.60;99.90;;;;;;5064504;28;20202;-86
2022/11/13 09:02:29;;;;;;;4.70;4.50;;;7.70;99.90;;;;;;5069545;28;20201;-86
2022/11/13 09:04:54;;;;;;;0.10;0.10;;;8.00;99.90;;;;;;5055997;28;20659;-86
2022/11/13 09:07:20;;;;;;;0.10;0.10;;;8.10;99.90;;;;;;5064567;28;20164;-86
2022/11/13 09:09:45;;;;;;;0.10;0.10;;;8.30;99.90;;;;;;5082425;28;20209;-86
2022/11/13 09:12:11;;;;;;;0.10;0.10;;;8.50;99.90;;;;;;5078628;28;20183;-86
2022/11/13 09:14:37;;;;;;;0.10;0.10;;;8.70;99.90;;;;;;5070640;28;20228;-86
2022/11/13 09:17:03;;;;;;;0.10;0.10;;;8.70;99.90;;;;;;5062634;28;20200;-86
2022/11/13 09:19:28;;;;;;;0.10;0.10;;;8.80;99.90;;;;;;5065638;28;20248;-87
2022/11/13 09:21:54;;;;;;;0.10;0.10;;;8.80;99.90;;;;;;5055013;28;20178;-87
2022/11/13 09:24:20;;;;;;;0.10;0.10;;;8.70;99.90;;;;;;5044496;28;20187;-87
2022/11/13 09:26:45;;;;;;;0.10;0.10;;;8.80;99.90;;;;;;5071738;28;20176;-86
2022/11/13 09:29:11;;;;;;;0.10;0.10;;;8.70;99.90;;;;;;5050130;28;20203;-86
2022/11/13 09:31:39;;;;;;;0.10;0.10;;;8.70;99.90;;;;;;5060089;28;20181;-86
2022/11/13 09:34:05;;;;;;;0.10;0.10;;;8.60;99.90;;;;;;5062194;28;20493;-85
2022/11/13 09:36:31;;;;;;;0.10;0.10;;;8.50;99.90;;;;;;5051986;28;20249;-85
2022/11/13 09:38:56;;;;;;;0.10;0.10;;;8.40;99.90;;;;;;5054355;28;20204;-86
2022/11/13 09:41:29;;;;;;;0.10;0.10;;;8.40;99.90;;;;;;5053180;28;20188;-86
2022/11/13 09:44:00;;;;;;;0.10;0.10;;;8.30;99.90;;;;;;5054649;28;20266;-85
2022/11/13 09:46:46;;;;;;;0.10;0.10;;;8.20;99.90;;;;;;5070960;28;20184;-86
2022/11/13 09:49:20;;;;;;;0.10;0.10;;;8.10;99.90;;;;;;5060356;28;20216;-86
2022/11/13 09:51:54;;;;;;;0.10;0.10;;;8.10;99.90;;;;;;5063288;28;20185;-86
2022/11/13 09:54:20;;;;;;;0.10;0.10;;;8.20;99.90;;;;;;5054036;28;20209;-86
2022/11/13 09:56:56;;;;;;;0.10;0.10;;;8.30;99.90;;;;;;5057253;28;20187;-86
2022/11/13 09:59:34;;;;;;;0.00;0.00;;;8.40;99.90;;;;;;5060228;28;20287;-86
2022/11/13 10:02:16;;;;;;;0.00;0.00;;;8.30;99.90;;;;;;5061766;28;20190;-86
2022/11/13 10:04:49;;;;;;;0.07;0.07;;;8.40;99.90;;;;;;5034552;28;20177;-86
2022/11/13 10:07:23;;;;;;;0.10;0.10;;;8.40;99.90;;;;;;5052468;28;20174;-86
2022/11/13 10:10:48;;;;;;;0.10;0.10;;;8.40;99.90;;;;;;5061815;28;20208;-86
2022/11/13 10:13:27;;;;;;;0.10;0.10;;;8.50;99.90;;;;;;5047314;28;20202;-86
2022/11/13 10:16:10;;;;;;;0.10;0.10;;;8.90;99.90;;;;;;5051960;28;20194;-86
2022/11/13 10:18:37;;;;;;;0.10;0.10;;;9.00;99.90;;;;;;5052022;28;20400;-86
2022/11/13 10:21:41;;;;;;;0.10;0.10;;;9.10;99.90;;;;;;5047784;28;20174;-86
2022/11/13 10:24:23;;;;;;;0.10;0.10;;;8.70;99.90;;;;;;5047828;28;20186;-86
2022/11/13 10:26:48;;;;;;;0.10;0.10;;;8.80;99.90;;;;;;5057242;28;20269;-86
2022/11/13 10:29:17;;;;;;;0.10;0.10;;;8.60;99.90;;;;;;5061931;28;20683;-85
2022/11/13 10:31:46;;;;;;;0.10;0.10;;;8.60;99.90;;;;;;5061070;28;20181;-86
2022/11/13 10:34:12;;;;;;;0.03;0.03;;;8.50;99.90;;;;;;5041088;28;20476;-86
2022/11/13 10:37:02;;;;;;;0.10;0.10;;;8.40;99.90;;;;;;5041498;28;20175;-86
2022/11/13 10:39:27;;;;;;;0.10;0.10;;;8.50;99.90;;;;;;5056575;28;20206;-86
2022/11/13 10:41:54;;;;;;;0.10;0.10;;;8.80;99.90;;;;;;5061385;28;20181;-86
2022/11/13 10:44:34;;;;;;;0.10;0.10;;;9.20;99.90;;;;;;5052106;28;20564;-85
2022/11/13 10:47:14;;;;;;;0.10;0.10;;;9.40;99.90;;;;;;5063992;28;20187;-86
2022/11/13 10:49:39;;;;;;;0.10;0.10;;;9.60;99.90;;;;;;5051537;28;20750;-86
2022/11/13 10:52:29;;;;;;;1.77;1.67;;;9.60;99.90;;;;;;5068541;28;20184;-86
2022/11/13 10:55:21;;;;;;;0.10;0.10;;;9.90;99.90;;;;;;5055008;28;20569;-86
2022/11/13 10:58:01;;;;;;;0.10;0.10;;;10.20;99.90;;;;;;5042685;28;20669;-86
2022/11/13 11:00:37;;;;;;;0.10;0.10;;;10.30;99.90;;;;;;5063273;28;20231;-86
2022/11/13 11:03:06;;;;;;;0.10;0.10;;;10.50;99.90;;;;;;5050275;28;20240;-86
2022/11/13 11:05:32;;;;;;;0.00;0.00;;;10.60;99.90;;;;;;5064212;28;20200;-86
2022/11/13 11:07:58;;;;;;;0.10;0.10;;;10.80;99.90;;;;;;5047872;28;20196;-86
2022/11/13 11:10:31;;;;;;;0.10;0.10;;;10.90;99.90;;;;;;5052658;28;20209;-85
2022/11/13 11:13:02;;;;;;;0.10;0.10;;;11.10;99.90;;;;;;5049229;28;20612;-86
2022/11/13 11:15:38;;;;;;;0.10;0.10;;;11.00;99.90;;;;;;5051847;28;20562;-86
2022/11/13 11:18:17;;;;;;;0.10;0.10;;;11.10;99.90;;;;;;5055643;28;20189;-86
2022/11/13 11:20:50;;;;;;;0.10;0.10;;;11.30;99.90;;;;;;5052625;28;20547;-86
2022/11/13 11:23:23;;;;;;;0.10;0.10;;;11.40;99.90;;;;;;5057697;28;20264;-87
2022/11/13 11:26:00;;;;;;;0.10;0.10;;;11.50;99.90;;;;;;5056238;28;20322;-86
2022/11/13 11:28:41;;;;;;;0.10;0.10;;;11.70;99.90;;;;;;5060315;28;20192;-86
2022/11/13 11:31:45;;;;;;;0.10;0.10;;;11.90;99.90;;;;;;5039272;28;20276;-86
2022/11/13 11:34:11;;;;;;;0.00;0.00;;;12.00;99.90;;;;;;5054230;28;20189;-87
2022/11/13 11:37:02;;;;;;;0.10;0.10;;;12.10;99.90;;;;;;5052551;28;20165;-86
2022/11/13 11:39:39;;;;;;;0.10;0.10;;;12.10;99.90;;;;;;5058858;28;21519;-86
2022/11/13 11:42:24;;;;;;;0.10;0.10;;;12.30;99.90;;;;;;5047982;28;20189;-86
2022/11/13 11:45:00;;;;;;;0.10;0.10;;;12.50;99.90;;;;;;5044846;28;20180;-85
2022/11/13 11:47:26;;;;;;;0.10;0.10;;;12.70;99.90;;;;;;5065853;28;20184;-85
2022/11/13 11:49:53;;;;;;;0.10;0.10;;;12.90;99.90;;;;;;5058773;28;20685;-86
2022/11/13 11:52:40;;;;;;;0.10;0.10;;;13.00;99.90;;;;;;5061548;28;20181;-86
2022/11/13 11:55:11;;;;;;;0.10;0.10;;;13.10;99.90;;;;;;5060503;28;20209;-87
2022/11/13 11:57:46;;;;;;;0.10;0.10;;;13.30;99.90;;;;;;5044842;28;20180;-86
2022/11/13 12:00:15;;;;;;;0.10;0.10;;;13.30;99.90;;;;;;5068629;28;20204;-86
2022/11/13 12:03:09;;;;;;;0.10;0.10;;;13.30;99.90;;;;;;5067973;28;20169;-86
2022/11/13 12:05:44;;;;;;;0.10;0.10;;;12.90;99.90;;;;;;5055463;28;20187;-86
2022/11/13 12:08:37;;;;;;;0.10;0.10;;;12.80;99.90;;;;;;5063171;28;20186;-86
2022/11/13 12:11:03;;;;;;;0.10;0.10;;;12.50;99.90;;;;;;5037858;28;20222;-85
2022/11/13 12:13:41;;;;;;;0.10;0.10;;;12.10;99.90;;;;;;5038167;28;20204;-85
2022/11/13 12:16:37;;;;;;;0.10;0.10;;;12.10;99.90;;;;;;5058181;28;20201;-85
2022/11/13 12:19:36;;;;;;;0.10;0.10;;;12.30;99.90;;;;;;5054977;28;20208;-86
2022/11/13 12:22:24;;;;;;;0.10;0.10;;;12.60;99.90;;;;;;5030959;28;20665;-86
2022/11/13 12:25:04;;;;;;;0.10;0.10;;;12.80;99.90;;;;;;5057258;28;20247;-84
2022/11/13 12:27:42;;;;;;;0.10;0.10;;;13.00;99.90;;;;;;5049171;28;20180;-86
2022/11/13 12:30:23;;;;;;;0.10;0.10;;;13.10;99.90;;;;;;5068611;28;20666;-86
2022/11/13 12:33:00;;;;;;;0.10;0.10;;;12.80;99.90;;;;;;5052229;28;20187;-86
2022/11/13 12:35:26;;;;;;;0.10;0.10;;;12.60;99.90;;;;;;5055389;28;20193;-85
2022/11/13 12:37:57;;;;;;;0.10;0.10;;;12.60;99.90;;;;;;5065120;28;20176;-86
2022/11/13 12:40:54;;;;;;;0.10;0.10;;;12.60;99.90;;;;;;5037946;28;20221;-86
2022/11/13 12:43:23;;;;;;;0.10;0.10;;;12.50;99.90;;;;;;5058509;28;20170;-86
2022/11/13 12:45:51;;;;;;;0.10;0.10;;;12.50;99.90;;;;;;5064969;28;20263;-86
2022/11/13 12:48:17;;;;;;;0.10;0.10;;;12.40;99.90;;;;;;5049923;28;20216;-86
2022/11/13 12:50:43;;;;;;;0.10;0.10;;;12.30;99.90;;;;;;5058359;28;20225;-86
2022/11/13 12:53:11;;;;;;;0.10;0.10;;;12.30;99.90;;;;;;5057613;28;20598;-85
2022/11/13 12:55:39;;;;;;;0.10;0.10;;;12.50;99.90;;;;;;5068465;28;20207;-86
2022/11/13 12:58:20;;;;;;;0.10;0.10;;;12.60;99.90;;;;;;5041032;28;20206;-86
2022/11/13 13:00:57;;;;;;;0.10;0.10;;;12.80;99.90;;;;;;5049033;28;20200;-85
2022/11/13 13:03:54;;;;;;;0.10;0.10;;;13.00;99.90;;;;;;5059352;28;20234;-86
2022/11/13 13:06:26;;;;;;;0.10;0.10;;;12.60;99.90;;;;;;5062347;28;20182;-86
2022/11/13 13:09:11;;;;;;;0.10;0.10;;;12.90;99.90;;;;;;5065118;28;20201;-86